Flight Track Log - Related Links

Times and Time Zones

All times are in EDT time to prevent confusion due to time zone crossing. See the AAL1583 flight status page for this flight to view local times or setup timezone preferences in your user account.

Time Position Orientation Groundspeed Altitude Reporting Facility
EDT Latitude Longitude Course Direction KTS MPH feet Rate Location/Type
Tue 02:01:27 PM 38.7833 -90.4500 240° Southwest 191 220 2,400  Level Gateway (St. Louis) TRACON
Tue 02:02:16 PM 38.8003 -90.4981 294° West 230 265 3,800 2,595 Climbing Kansas City Center
Tue 02:03:00 PM 38.5378 -90.4658 236° Southwest  Level FlightAware Approximate
Tue 02:03:18 PM 38.8378 -90.5811 300° West 268 308 7,200  Level Kansas City Center
Tue 02:04:00 PM 38.4786 -90.5770 240° Southwest  Level FlightAware Approximate
Tue 02:04:20 PM 38.7964 -90.6750 241° Southwest 291 335 9,800  Level Kansas City Center
Tue 02:05:00 PM 38.4259 -90.6932 240° Southwest  Level FlightAware Approximate
Tue 02:05:21 PM 38.7194 -90.7233 206° Southwest 310 357 12,000  Level Kansas City Center
Tue 02:06:00 PM 38.3731 -90.8094 240° Southwest  Level FlightAware Approximate
Tue 02:06:23 PM 38.6300 -90.7836 208° Southwest 362 417 14,100  Level Kansas City Center
Tue 02:07:25 PM 38.5328 -90.8397 204° Southwest 384 442 16,600 2,352 Climbing Kansas City Center
Tue 02:08:28 PM 38.4319 -90.9006 205° Southwest 399 459 19,000 2,419 Climbing Kansas City Center
Tue 02:09:29 PM 38.3078 -90.9756 205° Southwest 412 474 21,600 2,098 Climbing Kansas City Center
Tue 02:10:31 PM 38.2111 -91.0583 214° Southwest 423 487 23,300 1,694 Climbing Kansas City Center
Tue 02:11:33 PM 38.1131 -91.1481 216° Southwest 433 498 25,100 1,839 Climbing Kansas City Center
Tue 02:12:35 PM 38.0108 -91.2381 215° Southwest 442 509 27,100 1,887 Climbing Kansas City Center
Tue 02:13:37 PM 37.9289 -91.3475 227° Southwest 433 498 29,000 1,742 Climbing Kansas City Center
Tue 02:14:39 PM 37.8456 -91.4586 226° Southwest 435 501 30,700 1,463 Climbing Kansas City Center
Tue 02:15:40 PM 37.7456 -91.5875 226° Southwest 430 495 32,000 634 Climbing Kansas City Center
Tue 02:16:42 PM 37.6625 -91.6978 226° Southwest 431 496 32,000  Level Kansas City Center
Tue 02:17:44 PM 37.5803 -91.8075 227° Southwest 433 498 32,000  Level Kansas City Center
Tue 02:18:46 PM 37.5128 -91.9306 235° Southwest 428 493 32,000  Level Kansas City Center
Tue 02:19:47 PM 37.4444 -92.0542 235° Southwest 429 494 32,000  Level Kansas City Center
Tue 02:20:49 PM 37.3703 -92.1850 235° Southwest 428 493 32,000  Level Kansas City Center
Tue 02:21:51 PM 37.3014 -92.3075 235° Southwest 430 495 32,000  Level Kansas City Center
Tue 02:22:53 PM 37.2328 -92.4303 235° Southwest 430 495 32,000  Level Kansas City Center
Tue 02:23:55 PM 37.1644 -92.5500 234° Southwest 426 490 32,000  Level Kansas City Center
Tue 02:24:57 PM 37.0828 -92.6914 234° Southwest 421 484 32,000  Level Kansas City Center
Tue 02:25:59 PM 37.0131 -92.8100 234° Southwest 423 487 32,000  Level Kansas City Center
Tue 02:27:00 PM 36.9456 -92.9297 235° Southwest 422 486 32,000  Level Kansas City Center
Tue 02:27:56 PM 36.8736 -93.0514 234° Southwest 423 487 32,000  Level Memphis Center
Tue 02:28:56 PM 36.8067 -93.1686 235° Southwest 423 487 32,000  Level Memphis Center
Tue 02:29:56 PM 36.7392 -93.2903 235° Southwest 418 481 32,000  Level Memphis Center
Tue 02:30:56 PM 36.6697 -93.4069 233° Southwest 418 481 32,000  Level Memphis Center
Tue 02:31:56 PM 36.5981 -93.5206 232° Southwest 423 487 32,000  Level Memphis Center
Tue 02:32:56 PM 36.5283 -93.6392 234° Southwest 423 487 32,000  Level Memphis Center
Tue 02:33:56 PM 36.4606 -93.7578 235° Southwest 423 487 32,000  Level Memphis Center
Tue 02:34:56 PM 36.3947 -93.8683 234° Southwest 418 481 32,000  Level Memphis Center
Tue 02:35:15 PM 36.3842 -93.8875 236° Southwest 417 480 32,000  Level Kansas City Center
Tue 02:35:56 PM 36.3067 -93.9625 218° Southwest 410 472 32,000  Level Memphis Center
Tue 02:36:56 PM 36.2008 -94.0219 204° Southwest 410 472 32,000  Level Memphis Center
Tue 02:37:56 PM 36.0969 -94.0792 204° Southwest 415 478 32,000  Level Memphis Center
Tue 02:38:56 PM 35.9928 -94.1411 206° Southwest 415 478 32,000  Level Memphis Center
Tue 02:39:56 PM 35.8847 -94.2000 204° Southwest 421 484 32,000  Level Memphis Center
Tue 02:40:56 PM 35.7806 -94.2592 205° Southwest 421 484 32,000  Level Memphis Center
Tue 02:41:56 PM 35.6767 -94.3208 206° Southwest 421 484 32,000  Level Memphis Center
Tue 02:42:56 PM 35.5706 -94.3769 203° Southwest 421 484 32,000  Level Memphis Center
Tue 02:43:56 PM 35.4642 -94.4356 204° Southwest 416 479 32,000  Level Memphis Center
Tue 02:44:56 PM 35.3792 -94.4850 205° Southwest 421 484 32,000  Level Memphis Center
Tue 02:45:56 PM 35.2497 -94.5497 202° Southwest 416 479 32,000  Level Memphis Center
Tue 02:47:52 PM 35.0569 -94.6592 205° Southwest 401 461 32,000  Level Fort Worth Center
Tue 02:48:52 PM 34.9628 -94.7381 214° Southwest 407 468 32,000  Level Fort Worth Center
Tue 02:49:52 PM 34.8853 -94.8217 222° Southwest 412 474 32,000  Level Fort Worth Center
Tue 02:50:52 PM 34.7933 -94.9206 221° Southwest 412 474 32,000  Level Fort Worth Center
Tue 02:51:52 PM 34.7056 -95.0189 223° Southwest 418 481 32,000  Level Fort Worth Center
Tue 02:52:52 PM 34.6258 -95.1094 223° Southwest 409 471 32,000 -800 Level Fort Worth Center
Tue 02:53:52 PM 34.5483 -95.2125 228° Southwest 409 471 30,400 -1,300 Descending Fort Worth Center
Tue 02:54:52 PM 34.4689 -95.3128 226° Southwest 409 471 29,400 -1,000 Descending Fort Worth Center
Tue 02:55:52 PM 34.3911 -95.4128 227° Southwest 414 476 28,400 -1,000 Descending Fort Worth Center
Tue 02:56:52 PM 34.3094 -95.5178 227° Southwest 414 476 27,400 -1,050 Descending Fort Worth Center
Tue 02:57:52 PM 34.2192 -95.6303 226° Southwest 419 482 26,300 -1,050 Descending Fort Worth Center
Tue 02:58:52 PM 34.1392 -95.7322 227° Southwest 419 482 25,300 -1,300 Descending Fort Worth Center
Tue 02:59:52 PM 34.0694 -95.8214 227° Southwest 419 482 23,700 -2,000 Descending Fort Worth Center
Tue 03:00:52 PM 33.9850 -95.9281 226° Southwest 409 471 21,300 -2,350 Descending Fort Worth Center
Tue 03:01:52 PM 33.9131 -96.0194 227° Southwest 393 452 19,000 -2,000 Descending Fort Worth Center
Tue 03:02:52 PM 33.8431 -96.1081 226° Southwest 378 435 17,300 -1,900 Descending Fort Worth Center
Tue 03:03:52 PM 33.7897 -96.1789 228° Southwest 349 402 15,200 -2,000 Descending Fort Worth Center
Tue 03:04:52 PM 33.7133 -96.2722 225° Southwest 349 402 13,300 -1,600 Descending Fort Worth Center
Tue 03:05:52 PM 33.6533 -96.3481 226° Southwest 355 409 12,000 -1,200 Descending Fort Worth Center
Tue 03:06:52 PM 33.5853 -96.4336 226° Southwest 337 388 10,900 -950 Descending Fort Worth Center
Tue 03:07:52 PM 33.5336 -96.4964 225° Southwest 303 349 10,100 -850 Descending Fort Worth Center
Tue 03:08:52 PM 33.4736 -96.5717 226° Southwest 297 342 9,200 -650 Descending Fort Worth Center
Tue 03:09:52 PM 33.4175 -96.6344 223° Southwest 291 335 8,800 -550 Descending Fort Worth Center
Tue 03:10:52 PM 33.3636 -96.6897 221° Southwest 286 329 8,100 -800 Descending Fort Worth Center
Tue 03:11:52 PM 33.3014 -96.7572 222° Southwest 286 329 7,200 -800 Descending Fort Worth Center
Tue 03:12:52 PM 33.2767 -96.8269 247° West 271 312 6,500 -600 Descending Fort Worth Center
Tue 03:13:52 PM 33.2686 -96.9117 264° West 259 298 6,000 -250 Descending Fort Worth Center
Tue 03:14:52 PM 33.2481 -96.9861 252° West 234 269 6,000 -150 Level Fort Worth Center
Tue 03:15:52 PM 33.1961 -97.0161 206° Southwest 212 244 5,700 -650 Descending Fort Worth Center
Tue 03:16:52 PM 33.1272 -97.0264 187° South 217 250 4,700 -1,000 Descending Fort Worth Center

Login

Don't have an account? Register now (free) for customized features, flight alerts, and more!